Time;durP1;ratioP1;P1;durP2;ratioP2;P2;SDS_P1;SDS_P2;PMS_P1;PMS_P2;Temp;Humidity;BMP_temperature;BMP_pressure;BME280_temperature;BME280_humidity;BME280_pressure;Samples;Min_cycle;Max_cycle;Signal;HPM_P1;HPM_P2
2022/10/27 00:00:41;;;;;;;10.93;6.92;;;;;;;9.35;100.00;100160.38;1730521;81;21518;-70
2022/10/27 00:03:10;;;;;;;10.20;6.70;;;;;;;9.37;100.00;100162.32;1710135;82;21045;-71
2022/10/27 00:05:36;;;;;;;9.35;6.65;;;;;;;9.39;100.00;100172.38;1711021;82;21127;-71
2022/10/27 00:08:02;;;;;;;9.85;6.12;;;;;;;9.39;100.00;100172.38;1726904;82;21538;-70
2022/10/27 00:10:29;;;;;;;12.05;6.97;;;;;;;9.41;100.00;100172.14;1724467;81;21057;-71
2022/10/27 00:12:57;;;;;;;9.30;6.72;;;;;;;9.39;100.00;100172.92;1716396;82;21517;-71
2022/10/27 00:15:25;;;;;;;9.60;6.92;;;;;;;9.40;100.00;100180.83;1717420;82;21036;-70
2022/10/27 00:17:51;;;;;;;;;;;;;;;9.40;100.00;100178.11;1729146;82;20980;-71
2022/10/27 00:20:18;;;;;;;7.97;5.90;;;;;;;9.41;100.00;100172.97;1715994;81;20150;-71
2022/10/27 00:22:46;;;;;;;10.82;6.58;;;;;;;9.36;100.00;100169.35;1721769;81;21443;-70
2022/10/27 00:25:12;;;;;;;;;;;;;;;9.35;100.00;100173.96;1727586;82;21043;-70
2022/10/27 00:27:39;;;;;;;12.65;7.22;;;;;;;9.36;100.00;100178.86;1716552;82;20172;-69
2022/10/27 00:30:08;;;;;;;12.73;7.15;;;;;;;9.31;100.00;100176.10;1716819;81;21051;-70
2022/10/27 00:32:34;;;;;;;11.40;6.97;;;;;;;9.32;100.00;100177.72;1715402;81;21534;-70
2022/10/27 00:35:00;;;;;;;10.15;6.58;;;;;;;9.34;100.00;100182.38;1726792;82;21040;-70
2022/10/27 00:37:28;;;;;;;10.40;6.80;;;;;;;9.37;100.00;100185.42;1720458;82;21494;-70
2022/10/27 00:39:54;;;;;;;13.58;7.15;;;;;;;9.38;100.00;100190.32;1728066;81;21106;-69
2022/10/27 00:42:20;;;;;;;10.75;6.78;;;;;;;9.38;100.00;100195.22;1723938;82;21535;-69
2022/10/27 00:44:47;;;;;;;10.60;7.05;;;;;;;9.39;100.00;100192.77;1729384;81;21011;-69
2022/10/27 00:47:34;;;;;;;12.43;6.45;;;;;;;9.38;100.00;100188.42;1726301;82;21419;-70
2022/10/27 00:50:08;;;;;;;10.15;6.62;;;;;;;9.37;100.00;100195.46;1723682;82;21051;-70
2022/10/27 00:52:45;;;;;;;9.23;6.72;;;;;;;9.38;100.00;100203.37;1699189;83;21917;-69
2022/10/27 00:55:27;;;;;;;8.15;6.40;;;;;;;9.36;100.00;100201.96;1685102;84;21110;-68
2022/10/27 00:57:56;;;;;;;9.50;6.50;;;;;;;9.35;100.00;100201.13;1689027;83;21059;-69
2022/10/27 01:00:23;;;;;;;8.95;6.45;;;;;;;9.33;100.00;100199.75;1731820;81;21047;-71
2022/10/27 01:02:49;;;;;;;;;;;;;;;9.31;100.00;100206.81;1729289;81;20988;-70
2022/10/27 01:05:24;;;;;;;12.68;7.33;;;;;;;9.31;100.00;100204.09;1699126;82;20422;-69
2022/10/27 01:07:58;;;;;;;13.13;7.15;;;;;;;9.29;100.00;100207.58;1723559;81;20980;-70
2022/10/27 01:10:24;;;;;;;10.65;6.30;;;;;;;9.32;100.00;100209.80;1719444;81;21487;-70
2022/10/27 01:12:52;;;;;;;11.40;6.65;;;;;;;9.35;100.00;100216.64;1721918;81;20976;-69
2022/10/27 01:15:22;;;;;;;9.08;6.42;;;;;;;9.41;100.00;100217.81;1713878;82;21048;-70
2022/10/27 01:18:05;;;;;;;13.40;6.72;;;;;;;9.47;100.00;100220.03;1719081;81;21027;-69
2022/10/27 01:20:58;;;;;;;9.38;6.03;;;;;;;9.52;100.00;100222.01;1720862;82;21685;-70
2022/10/27 01:23:51;;;;;;;10.20;6.05;;;;;;;9.56;100.00;100224.51;1727707;81;20988;-70
2022/10/27 01:26:26;;;;;;;10.60;6.20;;;;;;;9.57;100.00;100215.25;1729068;81;21059;-71
2022/10/27 01:29:11;;;;;;;10.30;6.58;;;;;;;9.62;100.00;100213.97;1698222;83;21036;-69
2022/10/27 01:32:04;;;;;;;8.65;6.00;;;;;;;9.66;100.00;100219.19;1676885;83;21106;-70
2022/10/27 01:35:05;;;;;;;7.95;6.20;;;;;;;9.67;100.00;100217.56;1715896;82;21374;-69
2022/10/27 01:37:43;;;;;;;11.40;6.55;;;;;;;9.70;100.00;100221.69;1723697;82;21004;-69
2022/10/27 01:40:23;;;;;;;10.82;6.53;;;;;;;9.76;100.00;100232.36;1726991;81;21615;-69
2022/10/27 01:43:00;;;;;;;8.28;6.10;;;;;;;9.78;100.00;100228.84;1723176;81;21561;-70
2022/10/27 01:45:30;;;;;;;11.75;6.58;;;;;;;9.83;100.00;100237.59;1735882;80;21141;-71
2022/10/27 01:47:56;;;;;;;9.88;6.25;;;;;;;9.86;100.00;100238.45;1734216;80;20987;-70
2022/10/27 01:50:35;;;;;;;;;;;;;;;9.90;100.00;100249.10;1746021;82;21039;-70
2022/10/27 01:53:01;;;;;;;10.08;6.17;;;;;;;9.94;100.00;100246.16;1720450;80;20141;-69
2022/10/27 01:55:48;;;;;;;;;;;;;;;9.92;100.00;100245.58;1744432;82;21098;-71
2022/10/27 01:58:29;;;;;;;10.13;6.22;;;;;;;9.94;100.00;100258.40;1735143;82;20113;-71
2022/10/27 02:01:43;;;;;;;11.75;6.40;;;;;;;9.90;100.00;100249.10;1722105;82;21095;-70
2022/10/27 02:04:39;;;;;;;14.55;6.80;;;;;;;9.91;100.00;100259.73;1674641;85;21099;-71
2022/10/27 02:07:49;;;;;;;14.50;6.67;;;;;;;9.92;100.00;100256.45;1728285;81;21000;-71
2022/10/27 02:10:30;;;;;;;12.35;6.83;;;;;;;9.94;100.00;100259.76;1733084;81;21048;-70
2022/10/27 02:12:57;;;;;;;10.50;6.53;;;;;;;9.97;100.00;100264.69;1719408;82;21027;-69
2022/10/27 02:15:42;;;;;;;11.40;6.47;;;;;;;9.97;100.00;100256.52;1729136;82;21126;-69
2022/10/27 02:18:15;;;;;;;12.00;6.70;;;;;;;9.99;100.00;100259.27;1725211;81;21498;-69
2022/10/27 02:20:45;;;;;;;10.98;6.28;;;;;;;10.00;100.00;100263.63;1717585;82;21023;-69
2022/10/27 02:23:16;;;;;;;10.70;6.50;;;;;;;10.02;100.00;100257.95;1734689;81;20996;-70
2022/10/27 02:26:03;;;;;;;13.95;6.37;;;;;;;10.05;100.00;100267.49;1735348;81;21957;-69
2022/10/27 02:28:40;;;;;;;12.50;6.28;;;;;;;10.06;100.00;100267.78;1715835;82;21036;-69
2022/10/27 02:31:08;;;;;;;9.10;6.20;;;;;;;10.08;100.00;100257.45;1711905;82;21166;-70
2022/10/27 02:33:36;;;;;;;9.80;6.20;;;;;;;10.11;100.00;100262.38;1724073;82;21067;-71
2022/10/27 02:36:02;;;;;;;10.93;5.97;;;;;;;10.13;100.00;100262.40;1730143;81;21397;-71
2022/10/27 02:38:30;;;;;;;9.33;5.75;;;;;;;10.16;100.00;100265.20;1721456;81;21036;-71
2022/10/27 02:40:57;;;;;;;8.28;5.70;;;;;;;10.19;100.00;100264.15;1727835;81;21087;-71
2022/10/27 02:43:24;;;;;;;10.18;5.78;;;;;;;10.21;100.00;100272.86;1707640;83;21588;-71
2022/10/27 02:45:50;;;;;;;;;;;;;;;10.22;100.00;100274.52;1727808;81;21115;-70
2022/10/27 02:48:17;;;;;;;9.68;5.83;;;;;;;10.24;100.00;100276.96;1724629;81;20162;-70
2022/10/27 02:50:43;;;;;;;10.23;5.67;;;;;;;10.21;100.00;100278.84;1709863;82;21130;-71
2022/10/27 02:53:10;;;;;;;;;;;;;;;10.22;100.00;100267.72;1740515;81;21023;-71
2022/10/27 02:55:36;;;;;;;9.60;6.22;;;;;;;10.25;100.00;100267.20;1735492;81;20122;-71
2022/10/27 02:58:02;;;;;;;9.40;5.80;;;;;;;10.22;100.00;100271.80;1728783;81;21031;-70
2022/10/27 03:00:29;;;;;;;8.83;6.25;;;;;;;10.27;100.00;100276.48;1710347;82;21431;-70
2022/10/27 03:02:56;;;;;;;9.75;6.37;;;;;;;10.28;100.00;100272.13;1727097;81;21043;-71
2022/10/27 03:05:23;;;;;;;13.18;7.67;;;;;;;10.29;100.00;100276.49;1734337;81;21115;-70
2022/10/27 03:07:51;;;;;;;11.48;7.35;;;;;;;10.31;100.00;100281.13;1713325;82;21562;-69
2022/10/27 03:10:17;;;;;;;11.68;6.60;;;;;;;10.33;100.00;100277.63;1717744;81;21032;-69
2022/10/27 03:12:47;;;;;;;12.35;6.87;;;;;;;10.35;100.00;100277.35;1728981;81;21541;-69
2022/10/27 03:15:13;;;;;;;12.05;6.40;;;;;;;10.34;100.00;100277.09;1714724;81;21094;-68
2022/10/27 03:17:45;;;;;;;9.73;6.83;;;;;;;10.38;100.00;100282.31;1726701;81;21024;-68
2022/10/27 03:20:12;;;;;;;9.83;5.85;;;;;;;10.38;100.00;100283.67;1725417;82;21075;-68
2022/10/27 03:22:38;;;;;;;11.93;6.78;;;;;;;10.40;100.00;100282.86;1715463;82;21625;-70
2022/10/27 03:25:06;;;;;;;10.72;6.33;;;;;;;10.41;100.00;100288.59;1717136;82;21180;-70
2022/10/27 03:27:33;;;;;;;10.93;6.97;;;;;;;10.37;100.00;100288.28;1730780;82;21613;-68
2022/10/27 03:29:59;;;;;;;10.32;6.30;;;;;;;10.37;100.00;100294.27;1716925;81;21126;-68
2022/10/27 03:32:26;;;;;;;11.10;6.58;;;;;;;10.38;100.00;100296.71;1719619;81;21004;-68
2022/10/27 03:34:52;;;;;;;11.83;6.37;;;;;;;10.37;100.00;100295.09;1734955;81;21122;-69
2022/10/27 03:37:18;;;;;;;13.38;6.08;;;;;;;10.37;100.00;100295.09;1736165;81;21023;-69
2022/10/27 03:39:45;;;;;;;;;;;;;;;10.39;100.00;100296.17;1719483;81;21384;-70
2022/10/27 05:28:42;;;;;;;17.30;10.90;;;;;;;8.87;100.00;100381.56;1732954;79;22271;-73
2022/10/27 05:31:07;;;;;;;16.70;9.60;;;;;;;8.92;100.00;100384.38;1709615;83;21392;-73
2022/10/27 05:33:34;;;;;;;13.60;7.92;;;;;;;9.08;100.00;100390.34;1708712;82;21500;-73
2022/10/27 05:36:01;;;;;;;;;;;;;;;9.23;100.00;100393.86;1716927;82;21124;-74
2022/10/27 05:38:29;;;;;;;9.78;6.95;;;;;;;9.35;100.00;100397.33;1716121;81;20140;-72
2022/10/27 05:40:56;;;;;;;9.78;6.58;;;;;;;9.39;100.00;100396.56;1714360;82;21580;-72
2022/10/27 05:43:23;;;;;;;9.63;6.67;;;;;;;9.48;100.00;100402.41;1710916;82;21052;-72
2022/10/27 05:45:50;;;;;;;12.23;6.67;;;;;;;9.57;100.00;100398.72;1711078;83;21084;-73
2022/10/27 05:48:17;;;;;;;10.48;6.95;;;;;;;9.66;100.00;100394.00;1689620;82;21128;-74
2022/10/27 05:50:43;;;;;;;;;;;;;;;9.76;100.00;100398.75;1718607;83;21120;-74
2022/10/27 05:53:10;;;;;;;12.35;6.53;;;;;;;9.85;100.00;100406.75;1713282;82;20217;-73
2022/10/27 05:55:38;;;;;;;13.00;6.80;;;;;;;9.84;100.00;100401.05;1712525;81;21653;-74
2022/10/27 05:58:05;;;;;;;;;;;;;;;9.93;100.00;100398.99;1712444;82;21210;-75
2022/10/27 06:00:34;;;;;;;16.73;6.73;;;;;;;9.98;100.00;100408.59;1705294;82;20148;-75
2022/10/27 06:03:03;;;;;;;12.30;6.22;;;;;;;9.96;100.00;100409.37;1698921;81;21086;-73
2022/10/27 06:05:30;;;;;;;11.83;6.35;;;;;;;10.00;100.00;100405.61;1715897;83;21838;-73
2022/10/27 06:07:56;;;;;;;8.53;5.47;;;;;;;10.06;100.00;100414.11;1705124;81;21046;-74
2022/10/27 06:10:23;;;;;;;14.10;6.30;;;;;;;10.13;100.00;100416.67;1703924;83;21522;-74
2022/10/27 06:12:51;;;;;;;12.58;5.60;;;;;;;10.18;100.00;100420.30;1717425;81;21046;-74
2022/10/27 06:15:18;;;;;;;9.48;6.25;;;;;;;10.21;100.00;100419.79;1703683;83;20959;-74
2022/10/27 06:17:52;;;;;;;9.63;5.90;;;;;;;10.27;100.00;100420.70;1719856;81;21113;-74
2022/10/27 06:20:20;;;;;;;8.93;5.62;;;;;;;10.30;100.00;100416.93;1720902;81;21444;-74
2022/10/27 06:22:46;;;;;;;9.68;6.17;;;;;;;10.29;100.00;100424.80;1718344;83;21018;-74
2022/10/27 06:25:13;;;;;;;;;;;;;;;10.32;100.00;100420.20;1716821;81;20975;-74
2022/10/27 06:27:40;;;;;;;9.08;5.65;;;;;;;10.35;100.00;100416.14;1715545;83;20142;-74
2022/10/27 06:30:07;;;;;;;7.70;5.50;;;;;;;10.31;100.00;100426.72;1711192;83;21054;-73
2022/10/27 06:32:38;;;;;;;9.20;5.87;;;;;;;10.33;100.00;100429.20;1722822;82;21063;-74
2022/10/27 06:35:06;;;;;;;10.55;6.30;;;;;;;10.34;100.00;100427.59;1722341;83;20950;-73
2022/10/27 06:37:32;;;;;;;8.88;6.20;;;;;;;10.35;100.00;100425.14;1724526;82;21059;-73
2022/10/27 06:39:59;;;;;;;10.48;6.47;;;;;;;10.37;100.00;100428.98;1718987;82;20967;-73
2022/10/27 06:42:26;;;;;;;10.32;5.92;;;;;;;10.41;100.00;100436.39;1723496;82;21585;-74
2022/10/27 06:44:52;;;;;;;11.10;6.10;;;;;;;10.43;100.00;100432.04;1717867;82;20975;-74
2022/10/27 06:47:19;;;;;;;;;;;;;;;10.45;100.00;100437.50;1719641;82;21090;-75
2022/10/27 06:49:45;;;;;;;11.75;6.33;;;;;;;10.44;100.00;100436.41;1691352;82;20159;-76
2022/10/27 06:52:11;;;;;;;10.82;6.62;;;;;;;10.40;100.00;100435.27;1720968;82;21047;-74
2022/10/27 06:54:47;;;;;;;12.37;6.35;;;;;;;10.42;100.00;100433.11;1724993;83;21003;-75
2022/10/27 06:57:13;;;;;;;10.82;6.15;;;;;;;10.47;100.00;100438.09;1706659;82;21047;-76
2022/10/27 06:59:41;;;;;;;10.18;6.20;;;;;;;10.56;100.00;100443.09;1680955;84;21016;-74
2022/10/27 07:02:10;;;;;;;12.47;6.55;;;;;;;10.61;100.00;100441.78;1719359;82;21068;-73
2022/10/27 07:04:38;;;;;;;14.87;6.28;;;;;;;10.66;100.00;100441.84;1704420;82;21011;-73
2022/10/27 07:07:04;;;;;;;12.82;6.90;;;;;;;10.66;100.00;100445.94;1704747;82;21072;-73
2022/10/27 07:09:32;;;;;;;8.10;5.92;;;;;;;10.69;100.00;100444.05;1722025;82;20983;-74
2022/10/27 07:11:58;;;;;;;;;;;;;;;10.70;100.00;100447.07;1722891;82;21121;-74
2022/10/27 07:14:25;;;;;;;9.18;6.17;;;;;;;10.73;100.00;100452.00;1655733;83;20291;-78
2022/10/27 07:16:52;;;;;;;10.88;6.03;;;;;;;10.68;100.00;100448.67;1658272;84;21004;-74
2022/10/27 07:19:19;;;;;;;13.65;6.75;;;;;;;10.69;100.00;100453.59;1716830;82;20971;-74
2022/10/27 07:21:46;;;;;;;9.55;5.58;;;;;;;10.72;100.00;100450.34;1723698;82;21018;-73
2022/10/27 07:24:14;;;;;;;12.65;5.97;;;;;;;10.74;100.00;100450.37;1710278;82;20987;-73
2022/10/27 07:26:40;;;;;;;8.80;5.50;;;;;;;10.79;100.00;100453.69;1714941;82;21007;-74
2022/10/27 07:29:06;;;;;;;;;;;;;;;10.82;100.00;100461.34;1714703;82;21019;-75
2022/10/27 07:31:33;;;;;;;9.83;5.83;;;;;;;10.88;100.00;100454.88;1715730;82;20147;-74
2022/10/27 07:34:00;;;;;;;10.68;5.17;;;;;;;10.88;100.00;100459.78;1705477;82;21130;-74
2022/10/27 07:36:26;;;;;;;;;;;;;;;10.93;100.00;100465.83;1715945;82;21471;-74
2022/10/27 07:38:53;;;;;;;10.20;5.72;;;;;;;10.97;100.00;100465.61;1712181;82;20411;-72
2022/10/27 07:41:20;;;;;;;;;;;;;;;10.98;100.00;100463.97;1711298;82;21365;-72
2022/10/27 07:43:47;;;;;;;11.18;5.10;;;;;;;11.03;100.00;100476.83;1684598;83;20141;-72
2022/10/27 07:46:14;;;;;;;9.83;5.12;;;;;;;10.97;100.00;100478.69;1712200;82;21060;-73
2022/10/27 07:48:41;;;;;;;;;;;;;;;11.05;100.00;100473.86;1717286;82;21691;-73
2022/10/27 07:51:07;;;;;;;9.48;4.85;;;;;;;11.09;100.00;100478.52;1705937;82;20109;-71
2022/10/27 07:53:33;;;;;;;6.22;4.45;;;;;;;11.11;100.00;100474.19;1714610;82;21561;-75
2022/10/27 07:56:01;;;;;;;7.55;5.03;;;;;;;11.15;100.00;100482.96;1647396;85;20999;-73
2022/10/27 07:58:28;;;;;;;11.25;5.12;;;;;;;11.12;100.00;100482.13;1664721;84;21051;-74
2022/10/27 08:00:55;;;;;;;;;;;;;;;11.16;100.00;100490.60;1718972;82;20975;-74
2022/10/27 08:03:24;;;;;;;7.70;4.22;;;;;;;11.25;100.00;100491.23;1673080;82;20105;-74
2022/10/27 08:05:51;;;;;;;9.05;4.58;;;;;;;11.26;100.00;100498.34;1712805;82;21899;-76
2022/10/27 08:08:18;;;;;;;6.78;4.50;;;;;;;11.28;100.00;100493.44;1708684;82;21031;-76
2022/10/27 08:10:44;;;;;;;10.48;4.65;;;;;;;11.34;100.00;100489.67;1683334;83;21625;-75
2022/10/27 08:13:11;;;;;;;10.68;5.53;;;;;;;11.39;100.00;100495.72;1706327;82;21119;-75
2022/10/27 08:15:38;;;;;;;;;;;;;;;11.44;100.00;100491.13;1711890;82;21008;-75
2022/10/27 08:18:05;;;;;;;8.93;5.05;;;;;;;11.53;100.00;100491.48;1709089;82;20396;-74
2022/10/27 08:20:35;;;;;;;10.08;5.65;;;;;;;11.54;100.00;100497.23;1710367;82;21474;-71
2022/10/27 08:23:05;;;;;;;8.38;4.85;;;;;;;11.58;100.00;100498.89;1688355;83;21050;-76
2022/10/27 08:25:32;;;;;;;9.58;4.97;;;;;;;11.59;100.00;100497.25;1698741;82;21003;-76
2022/10/27 08:27:59;;;;;;;9.45;5.17;;;;;;;11.63;100.00;100501.11;1692771;82;21565;-74
2022/10/27 08:30:30;;;;;;;8.28;5.05;;;;;;;11.69;100.00;100503.36;1697976;83;21003;-70
2022/10/27 08:32:58;;;;;;;10.40;5.10;;;;;;;11.69;100.00;100509.61;1681991;83;21109;-71
2022/10/27 08:35:26;;;;;;;7.40;4.97;;;;;;;11.72;100.00;100504.22;1659963;83;20995;-70
2022/10/27 08:38:05;;;;;;;10.25;5.53;;;;;;;11.76;100.00;100511.60;1664128;83;21122;-75
2022/10/27 08:40:58;;;;;;;10.03;5.65;;;;;;;11.78;100.00;100512.19;1677499;83;21007;-70
2022/10/27 08:44:00;;;;;;;10.90;5.33;;;;;;;11.83;100.00;100514.14;1696088;83;21066;-70
2022/10/27 08:46:49;;;;;;;9.13;5.37;;;;;;;11.84;100.00;100513.86;1686184;83;20983;-72
2022/10/27 08:49:35;;;;;;;9.80;5.15;;;;;;;11.84;100.00;100512.49;1706325;83;21087;-72
2022/10/27 08:52:25;;;;;;;9.58;5.55;;;;;;;11.78;100.00;100511.36;1669723;83;21137;-76
2022/10/27 08:54:56;;;;;;;10.88;5.08;;;;;;;11.85;100.00;100514.69;1691101;83;21593;-72
2022/10/27 08:57:28;;;;;;;9.43;5.22;;;;;;;11.94;100.00;100525.38;1708938;83;21058;-71
2022/10/27 08:59:55;;;;;;;10.50;5.20;;;;;;;11.92;100.00;100525.66;1704332;83;21002;-73
2022/10/27 09:02:36;;;;;;;9.63;5.20;;;;;;;11.92;100.00;100522.93;1681448;83;21063;-71
2022/10/27 09:05:40;;;;;;;10.15;5.45;;;;;;;11.96;100.00;100522.69;1675218;83;21007;-73
2022/10/27 09:08:18;;;;;;;10.10;6.00;;;;;;;11.97;100.00;100525.68;1664395;83;21075;-73
2022/10/27 09:11:18;;;;;;;7.55;5.42;;;;;;;11.98;100.00;100523.24;1672312;83;21000;-72
2022/10/27 09:13:57;;;;;;;8.75;6.42;;;;;;;12.00;100.00;100518.90;1683863;83;21047;-71
2022/10/27 09:16:34;;;;;;;9.48;6.35;;;;;;;11.98;100.00;100528.70;1696346;83;20975;-72
2022/10/27 09:19:02;;;;;;;10.68;6.87;;;;;;;11.93;100.00;100527.85;1688653;83;21497;-72
2022/10/27 09:21:30;;;;;;;8.58;6.17;;;;;;;11.91;100.00;100529.47;1703134;83;21015;-72
2022/10/27 09:24:00;;;;;;;10.38;6.40;;;;;;;11.89;100.00;100524.00;1682478;83;21082;-71
2022/10/27 09:26:30;;;;;;;9.53;6.05;;;;;;;11.92;100.00;100533.02;1708607;83;21771;-72
2022/10/27 09:28:57;;;;;;;10.70;5.62;;;;;;;11.93;100.00;100531.41;1695293;82;21047;-72
2022/10/27 09:31:48;;;;;;;9.30;6.05;;;;;;;11.93;100.00;100532.77;1676804;85;21052;-72
2022/10/27 09:34:31;;;;;;;9.63;6.58;;;;;;;11.90;100.00;100529.17;1708754;82;20990;-71
2022/10/27 09:36:57;;;;;;;8.28;5.72;;;;;;;11.91;100.00;100526.73;1714102;83;20983;-71
2022/10/27 09:39:25;;;;;;;10.38;6.50;;;;;;;11.98;100.00;100529.23;1679761;85;21581;-73
2022/10/27 09:41:51;;;;;;;10.28;7.12;;;;;;;12.05;100.00;100530.37;1706569;82;21015;-72
2022/10/27 09:44:22;;;;;;;10.88;7.42;;;;;;;12.09;100.00;100536.42;1719958;82;21011;-71
2022/10/27 14:04:44;;;;;;;15.53;9.77;;;;;;;11.72;100.00;100588.78;1749048;79;23001;-72
2022/10/27 14:07:11;;;;;;;19.95;14.13;;;;;;;11.73;100.00;100601.31;1723712;81;21050;-72
2022/10/27 14:09:46;;;;;;;19.80;13.22;;;;;;;11.87;100.00;100588.89;1701322;83;21611;-72
2022/10/27 14:12:31;;;;;;;18.90;11.65;;;;;;;11.97;100.00;100583.55;1724523;82;21038;-72
2022/10/27 14:15:03;;;;;;;12.00;7.72;;;;;;;12.06;100.00;100586.61;1722265;81;21063;-70
2022/10/27 14:17:30;;;;;;;23.87;16.35;;;;;;;12.15;100.00;100593.25;1725072;82;21105;-74
2022/10/27 14:20:20;;;;;;;11.33;8.25;;;;;;;12.21;100.00;100596.28;1722671;82;21039;-72
2022/10/27 14:22:50;;;;;;;16.25;11.18;;;;;;;12.25;100.00;100605.06;1716397;81;21091;-72
2022/10/27 14:25:29;;;;;;;10.98;7.28;;;;;;;12.31;100.00;100606.73;1726750;83;21046;-73
2022/10/27 14:28:19;;;;;;;11.93;7.95;;;;;;;12.36;100.00;100608.12;1727078;82;21572;-72
2022/10/27 14:31:08;;;;;;;16.25;9.43;;;;;;;12.39;100.00;100608.16;1722158;81;21093;-73
2022/10/27 14:33:34;;;;;;;12.18;8.10;;;;;;;12.45;100.00;100609.30;1746161;81;21608;-74
2022/10/27 14:36:17;;;;;;;13.80;7.72;;;;;;;12.47;100.00;100607.11;1730361;81;20983;-72
2022/10/27 14:38:43;;;;;;;12.23;7.10;;;;;;;12.48;100.00;100607.94;1653599;84;21127;-77
2022/10/27 14:41:17;;;;;;;9.73;6.72;;;;;;;12.43;100.00;100609.28;1663273;85;21110;-71
2022/10/27 14:43:47;;;;;;;11.93;7.53;;;;;;;12.42;100.00;100611.73;1662386;86;21111;-73
2022/10/27 14:46:22;;;;;;;11.00;6.87;;;;;;;12.41;100.00;100612.27;1649387;86;21040;-73
2022/10/27 14:48:58;;;;;;;11.35;7.03;;;;;;;12.42;100.00;100611.19;1647414;86;21123;-73
2022/10/27 14:51:25;;;;;;;13.35;6.90;;;;;;;12.45;100.00;100617.48;1669289;84;21174;-73
2022/10/27 14:53:52;;;;;;;14.38;7.20;;;;;;;12.45;100.00;100624.31;1657509;86;21735;-73
2022/10/27 14:56:25;;;;;;;14.05;9.33;;;;;;;12.45;100.00;100622.12;1670090;85;21038;-76
2022/10/27 14:59:01;;;;;;;14.75;8.50;;;;;;;12.43;100.00;100629.77;1669218;86;21083;-76
2022/10/27 15:01:35;;;;;;;13.38;8.33;;;;;;;12.36;100.00;100628.59;1678070;84;21526;-75
2022/10/27 15:04:21;;;;;;;18.50;8.73;;;;;;;12.32;100.00;100632.97;1659987;86;21131;-74
2022/10/27 15:06:50;;;;;;;14.80;8.75;;;;;;;12.34;100.00;100635.41;1614440;87;21590;-73
2022/10/27 15:09:36;;;;;;;17.70;10.13;;;;;;;12.31;100.00;100639.50;1714801;82;21091;-75
2022/10/27 15:12:29;;;;;;;15.38;9.40;;;;;;;12.31;100.00;100645.50;1665640;84;21080;-75
2022/10/27 15:14:59;;;;;;;16.00;10.00;;;;;;;12.29;100.00;100644.37;1700335;83;21095;-75
2022/10/27 15:17:34;;;;;;;13.68;8.33;;;;;;;12.24;100.00;100645.72;1719859;82;21022;-73
2022/10/27 15:20:05;;;;;;;10.82;7.75;;;;;;;12.22;100.00;100642.41;1690800;83;21082;-71
2022/10/27 15:22:32;;;;;;;10.98;8.15;;;;;;;12.19;100.00;100642.11;1637101;85;21063;-67
2022/10/27 15:24:58;;;;;;;22.13;13.53;;;;;;;12.18;100.00;100644.05;1685970;82;21102;-74
2022/10/27 15:27:32;;;;;;;17.30;10.20;;;;;;;12.18;100.00;100645.95;1728123;82;21612;-74
2022/10/27 15:29:56;;;;;;;19.80;12.47;;;;;;;12.17;100.00;100645.11;1715507;82;21139;-73
2022/10/27 15:32:37;;;;;;;15.68;10.72;;;;;;;12.16;100.00;100640.73;1714587;83;21403;-73
2022/10/27 15:35:00;;;;;;;9.35;6.22;;;;;;;12.16;100.00;100637.17;1716347;82;21098;-75
2022/10/27 15:37:32;;;;;;;13.80;9.75;;;;;;;12.18;100.00;100644.58;1704319;83;21055;-72
2022/10/27 15:40:35;;;;;;;22.05;12.95;;;;;;;12.17;100.00;100645.11;1714430;82;21110;-72
2022/10/27 15:43:02;;;;;;;22.82;15.28;;;;;;;12.15;100.00;100644.53;1711690;82;21098;-76
2022/10/27 15:45:43;;;;;;;26.45;22.32;;;;;;;12.12;100.00;100642.33;1709740;82;21027;-76
2022/10/27 15:48:34;;;;;;;18.90;16.95;;;;;;;12.15;100.00;100647.83;1708321;82;21614;-75
2022/10/27 15:51:10;;;;;;;22.95;16.32;;;;;;;12.14;100.00;100642.91;1728044;82;20956;-76
2022/10/27 15:53:56;;;;;;;42.45;27.67;;;;;;;12.13;100.00;100649.45;1726115;82;21657;-77
2022/10/27 15:56:39;;;;;;;23.12;15.93;;;;;;;12.07;100.00;100645.03;1715935;82;21051;-75
2022/10/27 15:59:23;;;;;;;17.70;11.22;;;;;;;12.05;100.00;100651.27;1708719;82;21078;-75
2022/10/27 16:02:20;;;;;;;13.10;7.35;;;;;;;12.04;100.00;100657.01;1635354;86;21412;-73
2022/10/27 16:04:47;;;;;;;17.43;13.20;;;;;;;12.04;100.00;100655.11;1568071;90;21537;-76
2022/10/27 16:07:26;;;;;;;32.55;25.25;;;;;;;12.02;100.00;100657.79;1605134;88;21589;-76
2022/10/27 16:09:53;;;;;;;13.30;9.33;;;;;;;11.98;100.00;100650.13;1651518;83;21124;-74
2022/10/27 16:12:27;;;;;;;11.25;7.80;;;;;;;12.00;100.00;100653.14;1723998;82;21051;-73
2022/10/27 16:15:01;;;;;;;8.08;6.20;;;;;;;11.98;100.00;100658.31;1729363;82;21067;-75
2022/10/27 16:17:39;;;;;;;11.75;6.85;;;;;;;12.00;100.00;100660.80;1735998;82;21417;-74
2022/10/27 16:20:10;;;;;;;9.05;6.10;;;;;;;11.99;100.00;100663.23;1712160;82;21530;-72
2022/10/27 16:22:37;;;;;;;11.85;7.12;;;;;;;12.01;100.00;100658.33;1707913;82;21004;-72
2022/10/27 16:25:05;;;;;;;12.18;7.67;;;;;;;12.02;100.00;100668.17;1689448;84;21139;-77
2022/10/27 16:27:34;;;;;;;78.40;69.50;;;;;;;12.03;100.00;100664.37;1685086;83;21583;-73
2022/10/27 16:30:01;;;;;;;16.57;13.08;;;;;;;11.98;100.00;100670.59;1711323;83;21103;-77
2022/10/27 16:32:29;;;;;;;11.53;7.22;;;;;;;11.95;100.00;100668.38;1668829;83;21641;-76
2022/10/27 16:34:56;;;;;;;12.82;7.62;;;;;;;11.96;100.00;100671.41;1712054;82;21119;-75
2022/10/27 16:37:27;;;;;;;13.15;8.25;;;;;;;12.02;100.00;100668.17;1711213;83;21426;-74
2022/10/27 16:39:53;;;;;;;14.85;9.43;;;;;;;12.08;100.00;100671.22;1713765;82;21102;-76
2022/10/27 16:42:20;;;;;;;;;;;;;;;12.08;100.00;100669.06;1728243;82;21062;-77
2022/10/27 16:44:47;;;;;;;15.98;10.75;;;;;;;12.05;100.00;100672.28;1712552;83;20133;-76
2022/10/27 16:47:16;;;;;;;16.73;10.93;;;;;;;11.92;100.00;100673.00;1713755;83;21050;-76
2022/10/27 16:49:42;;;;;;;16.77;9.38;;;;;;;11.92;100.00;100669.44;1713206;83;21764;-76
2022/10/27 16:52:09;;;;;;;12.98;8.75;;;;;;;11.92;100.00;100672.17;1725216;82;21003;-71
2022/10/27 16:54:36;;;;;;;13.35;8.65;;;;;;;11.94;100.00;100674.91;1708665;84;21091;-72
2022/10/27 16:57:04;;;;;;;12.65;9.13;;;;;;;11.94;100.00;100676.28;1732425;82;21063;-70
2022/10/27 16:59:31;;;;;;;15.65;9.28;;;;;;;11.92;100.00;100679.81;1701236;83;21141;-70
2022/10/27 17:01:58;;;;;;;18.30;9.28;;;;;;;11.86;100.00;100689.05;1705452;83;21047;-70
2022/10/27 17:04:25;;;;;;;13.93;9.33;;;;;;;11.85;100.00;100681.10;1707979;83;21088;-70
2022/10/27 17:06:51;;;;;;;;;;;;;;;11.89;100.00;100690.42;1710114;82;21054;-69
2022/10/27 17:09:18;;;;;;;14.33;9.18;;;;;;;11.92;100.00;100688.00;1705664;82;20125;-70
2022/10/27 17:11:45;;;;;;;;;;;;;;;11.86;100.00;100683.59;1708385;82;21058;-71
2022/10/27 17:14:12;;;;;;;16.05;11.00;;;;;;;11.86;100.00;100685.48;1706556;82;20160;-71
2022/10/27 20:19:17;;;;;;;18.90;12.45;;;;;;;9.69;100.00;100795.88;1757099;79;22580;-72
2022/10/27 20:21:44;;;;;;;18.02;10.38;;;;;;;9.74;100.00;100811.47;1713517;82;21032;-72
2022/10/27 20:24:11;;;;;;;15.98;9.93;;;;;;;9.92;100.00;100808.55;1732025;82;21061;-73
2022/10/27 20:26:39;;;;;;;18.77;9.75;;;;;;;10.06;100.00;100809.13;1751426;82;21049;-73
2022/10/27 20:29:06;;;;;;;15.65;8.93;;;;;;;10.18;100.00;100808.03;1735787;81;21112;-73
2022/10/27 20:31:33;;;;;;;14.47;8.88;;;;;;;10.31;100.00;100805.53;1743876;82;21603;-73
2022/10/27 20:33:59;;;;;;;;;;;;;;;10.43;100.00;100805.78;1740295;82;21049;-73
2022/10/27 20:36:25;;;;;;;14.83;8.13;;;;;;;10.54;100.00;100801.34;1732001;81;20164;-73
2022/10/27 20:38:52;;;;;;;12.00;8.28;;;;;;;10.57;100.00;100800.02;1733541;81;21053;-73
2022/10/27 20:41:19;;;;;;;;;;;;;;;10.66;100.00;100802.64;1731097;82;21021;-73
2022/10/27 20:43:49;;;;;;;16.93;7.92;;;;;;;10.71;100.00;100806.27;1738214;82;20135;-73
2022/10/27 20:46:16;;;;;;;11.63;7.80;;;;;;;10.64;100.00;100804.23;1730492;81;21017;-73